Time;durP1;ratioP1;P1;durP2;ratioP2;P2;SDS_P1;SDS_P2;PMS_P1;PMS_P2;Temp;Humidity;BMP_temperature;BMP_pressure;BME280_temperature;BME280_humidity;BME280_pressure;Samples;Min_cycle;Max_cycle;Signal;HPM_P1;HPM_P2
2022/07/09 00:00:48;;;;;;;13.32;7.65;;;16.50;99.90;;;;;;5089539;28;20067;-81
2022/07/09 00:03:14;;;;;;;11.85;7.68;;;16.50;99.90;;;;;;5056306;28;20565;-81
2022/07/09 00:05:39;;;;;;;14.30;7.55;;;16.50;99.90;;;;;;5092432;28;20124;-80
2022/07/09 00:08:05;;;;;;;12.13;7.00;;;16.50;99.90;;;;;;5091165;28;20043;-80
2022/07/09 00:10:31;;;;;;;15.25;8.07;;;16.40;99.90;;;;;;5060448;27;20045;-81
2022/07/09 00:12:57;;;;;;;15.15;8.35;;;16.40;99.90;;;;;;5066073;28;20506;-80
2022/07/09 00:15:24;;;;;;;13.48;7.63;;;16.40;99.90;;;;;;5063211;28;20047;-80
2022/07/09 00:17:50;;;;;;;14.82;7.95;;;16.30;99.90;;;;;;5076157;28;20100;-81
2022/07/09 00:20:16;;;;;;;15.65;7.47;;;16.30;99.90;;;;;;5078085;28;20040;-80
2022/07/09 00:22:42;;;;;;;14.27;8.07;;;16.30;99.90;;;;;;5060976;28;20040;-81
2022/07/09 00:25:08;;;;;;;14.65;7.88;;;16.30;99.90;;;;;;5101535;28;20095;-81
2022/07/09 00:27:34;;;;;;;20.95;8.57;;;16.20;99.90;;;;;;5081187;28;20098;-80
2022/07/09 00:30:00;;;;;;;16.95;7.70;;;16.20;99.90;;;;;;5075052;28;20040;-81
2022/07/09 00:32:25;;;;;;;17.55;7.90;;;16.10;99.90;;;;;;5086133;28;20059;-81
2022/07/09 00:34:51;;;;;;;14.77;7.95;;;16.20;99.90;;;;;;5080134;28;20086;-81
2022/07/09 00:37:17;;;;;;;18.23;7.30;;;16.10;99.90;;;;;;5071229;28;20043;-81
2022/07/09 00:39:42;;;;;;;15.05;7.10;;;16.10;99.90;;;;;;5081999;28;20294;-80
2022/07/09 00:42:10;;;;;;;15.40;8.13;;;16.10;99.90;;;;;;5097050;28;20489;-80
2022/07/09 00:44:36;;;;;;;18.67;8.52;;;16.10;99.90;;;;;;5075810;28;20044;-80
2022/07/09 00:47:04;;;;;;;13.05;7.93;;;16.00;99.90;;;;;;5063998;28;20050;-80
2022/07/09 00:49:31;;;;;;;14.13;7.88;;;16.00;99.90;;;;;;5081149;28;20097;-80
2022/07/09 00:51:57;;;;;;;13.93;7.55;;;15.90;99.90;;;;;;5096463;28;20032;-81
2022/07/09 00:54:24;;;;;;;15.93;7.80;;;15.90;99.90;;;;;;5065241;28;20113;-80
2022/07/09 00:56:53;;;;;;;13.75;7.80;;;15.90;99.90;;;;;;5076864;28;20035;-80
2022/07/09 00:59:21;;;;;;;11.63;6.68;;;15.80;99.90;;;;;;5097057;28;20041;-80
2022/07/09 01:01:49;;;;;;;13.70;7.13;;;15.80;99.90;;;;;;5085037;28;20091;-80
2022/07/09 01:04:15;;;;;;;15.45;7.55;;;15.80;99.90;;;;;;5061036;28;20051;-80
2022/07/09 01:06:40;;;;;;;13.60;7.82;;;15.80;99.90;;;;;;5072139;28;20043;-80
2022/07/09 01:09:07;;;;;;;12.07;7.20;;;15.70;99.90;;;;;;5058209;28;20070;-80
2022/07/09 01:11:33;;;;;;;15.95;8.10;;;15.80;99.90;;;;;;5067943;28;20135;-80
2022/07/09 01:13:59;;;;;;;14.15;7.55;;;15.80;99.90;;;;;;5090072;28;20052;-80
2022/07/09 01:16:37;;;;;;;12.70;6.57;;;15.70;99.90;;;;;;5075539;28;20443;-80
2022/07/09 01:19:04;;;;;;;12.82;7.28;;;15.70;99.90;;;;;;5090346;28;20054;-80
2022/07/09 01:21:30;;;;;;;13.95;7.95;;;15.70;99.90;;;;;;5094229;28;20039;-80
2022/07/09 01:23:56;;;;;;;17.02;7.47;;;15.70;99.90;;;;;;5090970;28;20042;-80
2022/07/09 01:26:23;;;;;;;17.05;7.35;;;15.70;99.90;;;;;;5090097;28;20118;-80
2022/07/09 01:28:50;;;;;;;11.23;6.95;;;15.70;99.90;;;;;;5088063;28;20536;-80
2022/07/09 01:31:16;;;;;;;18.65;7.63;;;15.70;99.90;;;;;;5079661;28;20074;-80
2022/07/09 01:33:42;;;;;;;20.10;8.18;;;15.70;99.90;;;;;;5091998;28;20041;-80
2022/07/09 01:36:08;;;;;;;12.35;7.10;;;15.70;99.90;;;;;;5075261;28;20115;-79
2022/07/09 01:38:34;;;;;;;11.45;6.97;;;15.70;99.90;;;;;;5092596;28;20036;-80
2022/07/09 01:41:00;;;;;;;16.00;7.13;;;15.60;99.90;;;;;;5091818;28;20530;-80
2022/07/09 01:43:26;;;;;;;17.02;7.03;;;15.60;99.90;;;;;;5058945;28;20039;-80
2022/07/09 01:45:51;;;;;;;17.20;7.18;;;15.60;99.90;;;;;;5057961;28;20043;-80
2022/07/09 01:48:17;;;;;;;16.55;7.53;;;15.50;99.90;;;;;;5044697;27;20039;-80
2022/07/09 01:50:43;;;;;;;13.68;8.23;;;15.50;99.90;;;;;;5075301;28;20792;-80
2022/07/09 01:53:09;;;;;;;11.90;6.72;;;15.50;99.90;;;;;;5076521;28;20028;-80
2022/07/09 01:55:35;;;;;;;16.45;7.57;;;15.50;99.90;;;;;;5073172;28;20165;-80
2022/07/09 01:58:00;;;;;;;14.90;7.80;;;15.50;99.90;;;;;;5093568;28;20122;-80
2022/07/09 02:00:28;;;;;;;13.02;7.10;;;15.50;99.90;;;;;;5059515;28;20126;-80
2022/07/09 02:02:54;;;;;;;18.35;6.70;;;15.50;99.90;;;;;;5058782;28;20050;-80
2022/07/09 02:05:21;;;;;;;14.57;8.30;;;15.60;99.90;;;;;;5064949;28;20051;-79
2022/07/09 02:07:47;;;;;;;15.63;7.35;;;15.60;99.90;;;;;;5089261;28;20081;-79
2022/07/09 02:10:13;;;;;;;15.35;7.63;;;15.60;99.90;;;;;;5055411;28;20035;-80
2022/07/09 02:12:39;;;;;;;17.83;8.48;;;15.60;99.90;;;;;;5092090;28;20485;-79
2022/07/09 02:15:06;;;;;;;13.50;8.15;;;15.60;99.90;;;;;;5075068;28;20031;-79
2022/07/09 02:17:32;;;;;;;14.75;8.30;;;15.60;99.90;;;;;;5076688;28;20050;-79
2022/07/09 02:19:58;;;;;;;18.05;8.77;;;15.60;99.90;;;;;;5071125;28;20031;-79
2022/07/09 02:22:24;;;;;;;12.38;8.00;;;15.60;99.90;;;;;;5075173;28;20039;-79
2022/07/09 02:24:50;;;;;;;13.93;8.02;;;15.60;99.90;;;;;;5073844;28;20071;-79
2022/07/09 02:27:15;;;;;;;16.92;9.05;;;15.60;99.90;;;;;;5079970;28;20398;-79
2022/07/09 02:29:41;;;;;;;15.98;9.00;;;15.60;99.90;;;;;;5065499;28;20075;-79
2022/07/09 02:32:10;;;;;;;20.92;10.05;;;15.60;99.90;;;;;;5085420;28;20067;-79
2022/07/09 02:34:36;;;;;;;21.90;10.27;;;15.60;99.90;;;;;;5057047;28;20040;-79
2022/07/09 02:37:03;;;;;;;19.85;10.80;;;15.60;99.90;;;;;;5074750;28;20048;-80
2022/07/09 02:39:29;;;;;;;23.83;11.38;;;15.60;99.90;;;;;;5073436;28;20080;-80
2022/07/09 02:41:55;;;;;;;23.33;11.23;;;15.60;99.90;;;;;;5084552;28;20459;-80
2022/07/09 02:44:21;;;;;;;18.80;11.23;;;15.60;99.90;;;;;;5088483;28;20108;-79
2022/07/09 02:46:46;;;;;;;18.98;11.30;;;15.60;99.90;;;;;;5068790;28;20036;-80
2022/07/09 02:49:12;;;;;;;21.25;12.18;;;15.70;99.90;;;;;;5071833;28;20038;-79
2022/07/09 02:51:38;;;;;;;20.38;11.07;;;15.70;99.90;;;;;;5068142;28;20118;-80
2022/07/09 02:54:04;;;;;;;17.70;11.10;;;15.70;99.90;;;;;;5070545;28;20043;-80
2022/07/09 02:56:30;;;;;;;22.60;12.00;;;15.70;99.90;;;;;;5087065;28;20563;-80
2022/07/09 02:58:56;;;;;;;22.73;12.38;;;15.70;99.90;;;;;;5073813;28;20123;-79
2022/07/09 03:01:21;;;;;;;21.95;11.65;;;15.70;99.90;;;;;;5087094;28;20044;-79
2022/07/09 03:03:50;;;;;;;19.38;12.02;;;15.70;99.90;;;;;;5054138;28;20063;-79
2022/07/09 03:06:16;;;;;;;21.08;11.65;;;15.70;99.90;;;;;;5069333;28;20473;-79
2022/07/09 03:08:42;;;;;;;22.73;13.05;;;15.70;99.90;;;;;;5069877;28;20043;-79
2022/07/09 03:11:08;;;;;;;20.50;11.07;;;15.70;99.90;;;;;;5054574;28;20040;-79
2022/07/09 03:13:35;;;;;;;22.38;11.60;;;15.70;99.90;;;;;;5070399;28;20229;-79
2022/07/09 03:16:01;;;;;;;18.77;11.35;;;15.70;99.90;;;;;;5086754;28;20047;-80
2022/07/09 03:18:26;;;;;;;20.17;11.65;;;15.70;99.90;;;;;;5036741;28;20039;-80
2022/07/09 03:20:52;;;;;;;25.95;13.55;;;15.70;99.90;;;;;;5088054;28;20154;-80
2022/07/09 03:23:18;;;;;;;19.15;11.85;;;15.70;99.90;;;;;;5086255;28;20044;-80
2022/07/09 03:25:44;;;;;;;20.63;12.82;;;15.70;99.90;;;;;;5071132;28;20032;-80
2022/07/09 03:28:10;;;;;;;20.35;11.45;;;15.70;99.90;;;;;;5054200;28;20516;-80
2022/07/09 03:30:37;;;;;;;18.88;11.27;;;15.70;99.90;;;;;;5072215;28;20482;-80
2022/07/09 03:33:03;;;;;;;17.65;10.95;;;15.70;99.90;;;;;;5055110;28;20153;-79
2022/07/09 03:35:29;;;;;;;20.60;11.30;;;15.70;99.90;;;;;;5068057;28;20409;-79
2022/07/09 03:37:54;;;;;;;23.55;11.50;;;15.70;99.90;;;;;;5054552;28;20298;-79
2022/07/09 03:40:20;;;;;;;17.27;10.27;;;15.70;99.90;;;;;;5055217;28;20049;-80
2022/07/09 03:42:46;;;;;;;17.77;10.70;;;15.70;99.90;;;;;;5083522;28;20528;-79
2022/07/09 03:45:13;;;;;;;18.38;10.93;;;15.70;99.90;;;;;;5081585;28;20047;-79
2022/07/09 03:47:38;;;;;;;15.18;9.30;;;15.70;99.90;;;;;;5064214;28;20039;-79
2022/07/09 03:50:05;;;;;;;16.02;10.15;;;15.70;99.90;;;;;;5068769;28;20489;-79
2022/07/09 03:52:30;;;;;;;17.27;10.80;;;15.70;99.90;;;;;;5054325;28;20039;-79
2022/07/09 03:54:56;;;;;;;16.40;9.88;;;15.70;99.90;;;;;;5067885;28;20119;-79
2022/07/09 03:57:22;;;;;;;14.10;9.50;;;15.70;99.90;;;;;;5085337;28;20066;-80
2022/07/09 03:59:47;;;;;;;18.05;9.63;;;15.60;99.90;;;;;;5070226;28;20040;-79
2022/07/09 04:02:13;;;;;;;20.48;10.35;;;15.60;99.90;;;;;;5052401;28;20040;-79
2022/07/09 04:04:39;;;;;;;15.65;9.75;;;15.60;99.90;;;;;;5088343;28;20071;-79
2022/07/09 04:07:05;;;;;;;14.43;9.57;;;15.60;99.90;;;;;;5052944;28;20073;-79
2022/07/09 04:09:31;;;;;;;20.58;9.45;;;15.60;99.90;;;;;;5037384;28;20378;-79
2022/07/09 04:11:56;;;;;;;16.45;9.88;;;15.60;99.90;;;;;;5082427;28;20029;-79
2022/07/09 04:14:22;;;;;;;16.80;9.02;;;15.60;99.90;;;;;;5099139;28;20606;-79
2022/07/09 04:16:48;;;;;;;14.10;9.13;;;15.60;99.90;;;;;;5086481;28;20269;-79
2022/07/09 04:19:14;;;;;;;17.00;9.70;;;15.60;99.90;;;;;;5082537;28;20040;-79
2022/07/09 04:21:39;;;;;;;17.23;9.13;;;15.60;99.90;;;;;;5086731;28;20114;-79
2022/07/09 04:24:05;;;;;;;15.20;8.18;;;15.70;99.90;;;;;;5060981;28;20087;-79
2022/07/09 04:26:31;;;;;;;17.33;9.57;;;15.70;99.90;;;;;;5087283;28;20050;-79
2022/07/09 04:28:57;;;;;;;15.43;8.38;;;15.70;99.90;;;;;;5056959;28;20390;-78
2022/07/09 04:31:23;;;;;;;14.75;9.25;;;15.70;99.90;;;;;;5067584;28;20035;-78
2022/07/09 04:33:49;;;;;;;13.63;8.60;;;15.70;99.90;;;;;;5053895;28;20031;-79
2022/07/09 04:36:15;;;;;;;14.88;9.00;;;15.70;99.90;;;;;;5090746;28;20492;-78
2022/07/09 04:38:40;;;;;;;15.38;8.75;;;15.70;99.90;;;;;;5085137;28;20044;-79
2022/07/09 04:41:06;;;;;;;15.75;8.63;;;15.70;99.90;;;;;;5065792;28;20047;-79
2022/07/09 04:43:32;;;;;;;21.23;9.23;;;15.70;99.90;;;;;;5059023;28;20504;-78
2022/07/09 04:45:59;;;;;;;18.95;9.93;;;15.70;99.90;;;;;;5080770;28;20039;-78
2022/07/09 04:48:25;;;;;;;14.45;8.63;;;15.70;99.90;;;;;;5058780;28;20046;-78
2022/07/09 04:50:50;;;;;;;16.38;8.65;;;15.70;99.90;;;;;;5081111;28;20031;-78
2022/07/09 04:53:16;;;;;;;17.13;9.23;;;15.80;99.90;;;;;;5078166;28;20568;-78
2022/07/09 04:55:42;;;;;;;15.75;8.88;;;15.80;99.90;;;;;;5085566;28;20027;-79
2022/07/09 04:58:08;;;;;;;18.50;10.07;;;15.80;99.90;;;;;;5077855;28;20039;-78
2022/07/09 05:00:35;;;;;;;18.08;9.27;;;15.80;99.90;;;;;;5078080;28;20036;-80
2022/07/09 05:03:02;;;;;;;15.98;9.07;;;15.90;99.90;;;;;;5076474;28;20127;-79
2022/07/09 05:05:27;;;;;;;14.75;9.18;;;15.90;99.90;;;;;;5095831;28;20055;-79
2022/07/09 05:07:53;;;;;;;13.23;9.20;;;15.90;99.90;;;;;;5083590;28;20039;-79
2022/07/09 05:10:19;;;;;;;17.42;9.88;;;15.90;99.90;;;;;;5078104;28;20042;-78
2022/07/09 05:12:45;;;;;;;14.68;10.45;;;16.00;99.90;;;;;;5062563;28;20657;-79
2022/07/09 05:15:12;;;;;;;17.40;9.52;;;16.00;99.90;;;;;;5081559;28;20043;-78
2022/07/09 05:17:38;;;;;;;14.98;8.85;;;16.00;99.90;;;;;;5075791;27;20039;-79
2022/07/09 05:20:06;;;;;;;17.05;9.02;;;16.00;99.90;;;;;;5067733;28;20036;-79
2022/07/09 05:22:33;;;;;;;13.90;9.23;;;16.10;99.90;;;;;;5078149;28;20473;-79
2022/07/09 05:24:59;;;;;;;15.55;9.02;;;16.10;99.90;;;;;;5065733;28;20462;-80
2022/07/09 05:27:26;;;;;;;13.60;8.90;;;16.10;99.90;;;;;;5065261;28;20048;-79
2022/07/09 05:29:52;;;;;;;13.73;9.27;;;16.10;99.90;;;;;;5078198;28;20444;-80
2022/07/09 05:32:18;;;;;;;16.17;8.18;;;16.20;99.90;;;;;;5094726;28;20043;-80
2022/07/09 05:34:44;;;;;;;14.88;8.27;;;16.20;99.90;;;;;;5073948;28;20191;-79
2022/07/09 05:37:10;;;;;;;15.82;8.48;;;16.20;99.90;;;;;;5091499;28;20032;-78
2022/07/09 05:39:49;;;;;;;18.75;8.95;;;16.30;99.90;;;;;;5057924;28;20136;-80
2022/07/09 05:42:17;;;;;;;13.77;8.75;;;16.30;99.90;;;;;;5070834;28;20039;-80
2022/07/09 05:44:49;;;;;;;14.73;8.05;;;16.30;99.90;;;;;;5062552;28;20043;-80
2022/07/09 05:47:15;;;;;;;14.98;8.27;;;16.40;99.90;;;;;;5065519;28;20036;-79
2022/07/09 05:49:40;;;;;;;19.33;9.10;;;16.50;99.90;;;;;;5076530;28;20131;-80
2022/07/09 05:52:06;;;;;;;16.98;8.63;;;16.50;99.90;;;;;;5076226;28;20122;-80
2022/07/09 05:54:32;;;;;;;14.00;7.93;;;16.60;99.90;;;;;;5076296;28;20515;-80
2022/07/09 05:56:58;;;;;;;15.25;8.48;;;16.60;99.90;;;;;;5073764;28;20031;-80
2022/07/09 05:59:24;;;;;;;12.65;7.68;;;16.70;99.90;;;;;;5076589;28;20131;-80
2022/07/09 06:01:50;;;;;;;13.73;7.30;;;16.70;99.90;;;;;;5058975;28;20031;-80
2022/07/09 06:04:15;;;;;;;12.60;7.32;;;16.80;99.90;;;;;;5091600;28;20100;-79
2022/07/09 06:06:41;;;;;;;12.50;7.30;;;16.80;99.90;;;;;;5093224;28;20067;-80
2022/07/09 06:09:07;;;;;;;12.63;7.20;;;16.90;99.90;;;;;;5058987;28;20039;-79
2022/07/09 06:11:33;;;;;;;11.13;6.68;;;16.90;99.90;;;;;;5075349;28;20305;-79
2022/07/09 06:13:59;;;;;;;13.77;6.82;;;16.90;99.90;;;;;;5074369;28;20114;-81
2022/07/09 06:16:24;;;;;;;12.25;6.25;;;17.00;99.90;;;;;;5059484;28;20118;-80
2022/07/09 06:18:50;;;;;;;13.70;6.82;;;17.00;99.90;;;;;;5056882;28;20048;-81
2022/07/09 06:21:16;;;;;;;9.38;5.93;;;17.10;99.90;;;;;;5075246;28;20048;-80
2022/07/09 06:23:41;;;;;;;11.77;6.03;;;17.20;99.90;;;;;;5056378;28;20035;-80
2022/07/09 06:26:07;;;;;;;13.88;5.65;;;17.20;99.90;;;;;;5071381;28;20118;-80
2022/07/09 06:28:36;;;;;;;9.60;5.68;;;17.30;99.90;;;;;;5054696;28;20188;-80
2022/07/09 06:31:02;;;;;;;8.98;5.25;;;17.30;99.90;;;;;;5073172;28;20027;-80
2022/07/09 06:33:28;;;;;;;10.70;6.07;;;17.30;99.90;;;;;;5047871;28;20499;-79
2022/07/09 06:35:53;;;;;;;14.30;5.78;;;17.40;99.90;;;;;;5059587;28;20034;-80
2022/07/09 06:38:19;;;;;;;8.43;5.30;;;17.40;99.90;;;;;;5090593;28;20588;-79
2022/07/09 06:40:45;;;;;;;7.50;4.72;;;17.40;99.90;;;;;;5078600;28;20036;-80
2022/07/09 06:43:12;;;;;;;11.57;5.50;;;17.40;99.90;;;;;;5070478;28;20088;-81
2022/07/09 06:45:38;;;;;;;10.63;5.22;;;17.50;99.90;;;;;;5087382;28;20139;-80
2022/07/09 06:48:04;;;;;;;7.35;4.85;;;17.50;99.90;;;;;;5072644;28;20249;-80
2022/07/09 06:50:30;;;;;;;5.60;4.65;;;17.50;99.90;;;;;;5082512;28;20028;-79
2022/07/09 06:52:56;;;;;;;6.68;4.90;;;17.60;99.90;;;;;;5094809;28;20074;-80
2022/07/09 06:55:21;;;;;;;6.78;4.80;;;17.60;99.90;;;;;;5070153;28;20473;-80
2022/07/09 06:57:48;;;;;;;8.48;4.35;;;17.50;99.90;;;;;;5087587;28;20044;-80
2022/07/09 07:00:14;;;;;;;7.97;5.18;;;17.60;99.90;;;;;;5064308;28;20040;-80
2022/07/09 07:02:40;;;;;;;10.75;4.43;;;17.60;99.90;;;;;;5073957;28;20488;-80
2022/07/09 07:05:06;;;;;;;7.05;4.00;;;17.60;99.90;;;;;;5046393;28;20047;-80
2022/07/09 07:07:31;;;;;;;8.45;4.25;;;17.60;99.90;;;;;;5089903;28;20042;-80
2022/07/09 07:09:57;;;;;;;7.82;4.28;;;17.70;99.90;;;;;;5075190;28;20031;-80
2022/07/09 07:12:23;;;;;;;11.02;5.22;;;17.70;99.90;;;;;;5080236;28;20464;-80
2022/07/09 07:14:50;;;;;;;9.07;4.70;;;17.70;99.90;;;;;;5049132;28;20116;-80
2022/07/09 07:17:16;;;;;;;6.32;4.38;;;17.80;99.90;;;;;;5092442;28;20043;-80
2022/07/09 07:19:42;;;;;;;7.50;4.68;;;17.80;99.90;;;;;;5072006;28;20039;-79
2022/07/09 07:22:07;;;;;;;6.38;4.50;;;17.80;99.90;;;;;;5089476;28;20035;-79
2022/07/09 07:24:33;;;;;;;10.38;5.57;;;17.80;99.90;;;;;;5073962;28;20032;-80
2022/07/09 07:26:59;;;;;;;7.15;4.53;;;17.80;99.90;;;;;;5091421;28;20422;-80
2022/07/09 07:29:26;;;;;;;9.18;5.40;;;17.90;99.90;;;;;;5088745;28;20099;-80
2022/07/09 07:31:56;;;;;;;7.35;4.60;;;17.90;99.90;;;;;;5075398;28;20036;-79
2022/07/09 07:34:24;;;;;;;11.38;4.90;;;17.90;99.90;;;;;;5082448;28;20501;-81
2022/07/09 07:36:51;;;;;;;7.22;4.53;;;18.00;99.90;;;;;;5080191;28;20031;-80
2022/07/09 07:39:17;;;;;;;7.50;4.90;;;18.00;99.90;;;;;;5087510;28;20047;-79
2022/07/09 07:41:43;;;;;;;7.38;4.53;;;18.00;99.90;;;;;;5073066;28;20043;-79
2022/07/09 07:44:09;;;;;;;7.70;4.45;;;18.00;99.90;;;;;;5066313;28;20059;-79
2022/07/09 07:46:34;;;;;;;7.32;4.20;;;18.00;99.90;;;;;;5064279;28;20408;-80
2022/07/09 07:49:00;;;;;;;8.05;4.07;;;18.00;99.90;;;;;;5086899;28;20057;-80
2022/07/09 07:51:26;;;;;;;8.75;3.88;;;17.90;99.90;;;;;;5054810;28;20032;-79
2022/07/09 07:53:51;;;;;;;7.82;4.13;;;17.90;99.90;;;;;;5065861;28;20481;-79
2022/07/09 07:56:17;;;;;;;9.52;4.07;;;17.90;99.90;;;;;;5058782;28;20040;-80
2022/07/09 07:58:43;;;;;;;6.28;4.00;;;18.00;99.90;;;;;;5082294;28;20031;-79
2022/07/09 08:01:09;;;;;;;3.88;3.35;;;18.00;99.90;;;;;;5056352;28;20044;-79
2022/07/09 08:03:34;;;;;;;7.75;4.22;;;18.10;99.90;;;;;;5070914;28;20047;-80
2022/07/09 08:06:00;;;;;;;5.13;3.70;;;18.10;99.90;;;;;;5059879;28;20039;-79
2022/07/09 08:08:26;;;;;;;7.43;3.63;;;18.10;99.90;;;;;;5076278;28;20036;-79
2022/07/09 08:10:52;;;;;;;5.15;3.72;;;18.10;99.90;;;;;;5057139;28;20036;-79
2022/07/09 08:13:18;;;;;;;7.72;3.85;;;18.20;99.90;;;;;;5049870;28;20042;-79
2022/07/09 08:15:44;;;;;;;7.70;3.95;;;18.20;99.90;;;;;;5076227;28;20031;-79
2022/07/09 08:18:12;;;;;;;5.45;3.50;;;18.30;99.90;;;;;;5076040;28;20040;-81
2022/07/09 08:20:38;;;;;;;4.75;3.13;;;18.30;99.90;;;;;;5089698;28;20509;-79
2022/07/09 08:23:04;;;;;;;6.65;3.55;;;18.30;99.90;;;;;;5075528;28;20115;-78
2022/07/09 08:25:30;;;;;;;6.03;3.92;;;18.40;99.90;;;;;;5086677;28;20118;-79
2022/07/09 08:27:56;;;;;;;5.63;3.33;;;18.70;99.90;;;;;;5079146;28;20052;-79
2022/07/09 08:30:21;;;;;;;5.13;3.33;;;19.00;99.90;;;;;;5055246;28;20036;-79
2022/07/09 08:32:47;;;;;;;5.40;3.15;;;19.30;99.90;;;;;;5089486;28;20531;-79
2022/07/09 08:35:29;;;;;;;4.53;3.08;;;19.50;99.90;;;;;;5094814;28;20127;-78
2022/07/09 08:37:54;;;;;;;7.38;3.10;;;19.70;99.90;;;;;;5096120;28;20040;-78
2022/07/09 08:40:21;;;;;;;2.95;2.65;;;19.70;99.90;;;;;;5059329;28;20056;-78
2022/07/09 08:42:48;;;;;;;3.58;2.65;;;19.60;99.90;;;;;;5078940;28;20043;-79
2022/07/09 08:45:16;;;;;;;5.80;2.60;;;19.50;99.90;;;;;;5082549;28;20408;-79
2022/07/09 08:47:43;;;;;;;6.47;2.60;;;19.40;99.90;;;;;;5094006;28;20043;-79
2022/07/09 08:50:10;;;;;;;6.05;2.30;;;19.40;99.90;;;;;;5094011;28;20397;-78
2022/07/09 08:52:38;;;;;;;2.60;2.25;;;19.50;99.90;;;;;;5083466;28;20039;-78
2022/07/09 08:55:06;;;;;;;4.90;2.67;;;19.60;99.90;;;;;;5091430;28;20032;-78
2022/07/09 08:57:31;;;;;;;4.80;2.42;;;19.60;99.90;;;;;;5079148;28;20040;-79
2022/07/09 08:59:57;;;;;;;4.22;2.53;;;19.60;99.90;;;;;;5078681;28;20103;-79
2022/07/09 09:02:23;;;;;;;4.40;2.50;;;19.80;99.90;;;;;;5086209;28;20040;-78
2022/07/09 09:04:48;;;;;;;2.92;2.63;;;20.00;99.90;;;;;;5071586;28;20497;-79
2022/07/09 09:07:16;;;;;;;5.00;2.33;;;20.00;99.90;;;;;;5071170;28;21365;-79
2022/07/09 09:09:42;;;;;;;5.18;2.55;;;20.00;99.90;;;;;;5078136;28;20519;-79
2022/07/09 09:12:09;;;;;;;2.70;2.10;;;20.20;99.90;;;;;;5095782;28;20046;-79
2022/07/09 09:14:34;;;;;;;4.35;2.40;;;20.40;99.90;;;;;;5086553;28;20034;-79
2022/07/09 09:17:11;;;;;;;4.70;2.22;;;20.50;99.90;;;;;;5054383;28;20044;-79
2022/07/09 09:19:39;;;;;;;4.68;2.10;;;20.50;99.90;;;;;;5086404;28;20127;-79
2022/07/09 09:22:06;;;;;;;4.70;2.08;;;20.50;99.90;;;;;;5070873;28;20062;-78
2022/07/09 09:24:32;;;;;;;4.47;2.40;;;20.50;99.90;;;;;;5075411;28;20039;-79
2022/07/09 09:27:01;;;;;;;3.30;1.88;;;20.40;99.90;;;;;;5062879;28;20232;-79
2022/07/09 09:29:27;;;;;;;3.70;1.80;;;20.40;99.90;;;;;;5055889;28;20047;-79
2022/07/09 09:31:54;;;;;;;2.50;2.00;;;20.40;99.90;;;;;;5059517;28;20036;-80
2022/07/09 09:34:21;;;;;;;2.78;2.05;;;20.40;99.90;;;;;;5075199;28;20039;-80
2022/07/09 09:36:52;;;;;;;2.65;1.95;;;20.50;99.90;;;;;;5066465;28;20032;-80
2022/07/09 09:39:23;;;;;;;2.28;1.85;;;20.50;99.90;;;;;;5091752;28;20105;-79
2022/07/09 09:41:57;;;;;;;5.85;2.13;;;20.50;99.90;;;;;;5075349;28;20075;-77
2022/07/09 09:44:29;;;;;;;3.08;1.88;;;20.60;99.90;;;;;;5091235;28;20136;-78
2022/07/09 09:46:57;;;;;;;5.18;2.17;;;20.60;99.90;;;;;;5080047;28;20083;-76
2022/07/09 09:49:23;;;;;;;3.83;1.80;;;20.60;99.90;;;;;;5089669;28;20036;-77
2022/07/09 09:52:02;;;;;;;2.85;1.73;;;20.60;99.90;;;;;;5051987;28;20522;-77
2022/07/09 09:54:30;;;;;;;3.22;1.90;;;20.50;99.90;;;;;;5076828;28;20032;-77
2022/07/09 09:56:58;;;;;;;3.15;1.75;;;20.50;99.90;;;;;;5079981;28;20028;-76
2022/07/09 09:59:24;;;;;;;3.35;1.80;;;20.70;99.90;;;;;;5076421;28;20059;-76
2022/07/09 10:01:50;;;;;;;1.70;1.60;;;20.80;99.90;;;;;;5079385;28;20123;-77
2022/07/09 10:04:16;;;;;;;4.15;1.67;;;20.90;99.90;;;;;;5058006;28;20044;-77
2022/07/09 10:06:43;;;;;;;2.03;1.60;;;21.00;99.90;;;;;;5075426;28;20083;-76
2022/07/09 10:09:12;;;;;;;4.50;2.00;;;21.20;99.90;;;;;;5090832;28;20465;-76
2022/07/09 10:11:48;;;;;;;2.88;1.60;;;21.30;99.90;;;;;;5074328;28;20059;-76
2022/07/09 10:14:34;;;;;;;2.80;1.70;;;21.50;99.90;;;;;;5090463;28;20512;-78
2022/07/09 10:17:14;;;;;;;5.50;1.90;;;21.50;99.90;;;;;;5094478;28;20069;-78
2022/07/09 10:19:52;;;;;;;3.10;1.48;;;21.40;99.90;;;;;;5078352;28;20461;-78
2022/07/09 10:22:18;;;;;;;4.18;1.63;;;21.20;99.90;;;;;;5067154;28;20067;-78
2022/07/09 10:24:46;;;;;;;1.88;1.50;;;21.00;99.90;;;;;;5068207;28;20618;-76
2022/07/09 10:27:12;;;;;;;4.20;2.25;;;20.80;99.90;;;;;;5076723;28;20051;-76
2022/07/09 10:29:58;;;;;;;4.90;1.80;;;20.80;99.90;;;;;;5079462;28;20052;-75
2022/07/09 10:32:43;;;;;;;3.75;1.75;;;20.80;99.90;;;;;;5046409;28;20032;-77
2022/07/09 10:35:26;;;;;;;3.42;1.77;;;21.00;99.90;;;;;;5087824;28;20063;-75
2022/07/09 10:37:54;;;;;;;1.90;1.50;;;21.10;99.90;;;;;;5074640;28;20047;-74
2022/07/09 10:40:22;;;;;;;3.95;1.60;;;21.20;99.90;;;;;;5066733;28;20181;-74
2022/07/09 10:43:03;;;;;;;2.45;1.35;;;21.50;99.90;;;;;;5064267;28;20516;-73
2022/07/09 10:45:41;;;;;;;5.25;1.75;;;21.90;99.90;;;;;;5055700;28;20042;-75
2022/07/09 10:48:09;;;;;;;3.20;1.30;;;22.10;99.90;;;;;;5063178;28;20115;-75
2022/07/09 10:50:41;;;;;;;4.28;1.83;;;21.90;99.90;;;;;;5065554;28;20120;-78
2022/07/09 10:53:08;;;;;;;1.70;1.60;;;21.50;99.90;;;;;;5080730;28;20036;-75
2022/07/09 10:55:45;;;;;;;2.33;1.40;;;21.20;99.90;;;;;;5071609;28;20032;-75
2022/07/09 10:58:18;;;;;;;3.50;1.77;;;21.20;99.90;;;;;;5063223;28;20119;-77
2022/07/09 11:00:53;;;;;;;3.75;1.90;;;21.50;99.90;;;;;;5055757;28;20119;-77
2022/07/09 11:03:27;;;;;;;5.15;2.03;;;21.90;99.90;;;;;;5054578;28;20059;-77
2022/07/09 11:05:53;;;;;;;4.97;1.83;;;22.10;99.90;;;;;;5070134;28;20039;-78
2022/07/09 11:08:19;;;;;;;3.33;1.70;;;22.00;99.90;;;;;;5067996;28;20043;-79
2022/07/09 11:10:45;;;;;;;4.22;1.80;;;21.90;99.90;;;;;;5074514;28;20069;-78
2022/07/09 11:13:11;;;;;;;2.00;1.65;;;22.20;99.90;;;;;;5092452;28;20401;-78
2022/07/09 11:15:38;;;;;;;4.93;1.92;;;22.50;99.90;;;;;;5060134;28;20036;-77
2022/07/09 11:18:09;;;;;;;2.65;1.58;;;22.80;99.90;;;;;;5082230;28;20496;-78
2022/07/09 11:20:44;;;;;;;3.10;1.43;;;22.90;99.90;;;;;;5088358;28;20040;-79
2022/07/09 11:23:15;;;;;;;3.00;1.42;;;22.90;99.90;;;;;;5081959;28;20042;-78
2022/07/09 11:25:42;;;;;;;3.95;1.50;;;22.90;99.90;;;;;;5073236;28;20039;-78
2022/07/09 11:28:08;;;;;;;2.65;1.33;;;22.80;99.90;;;;;;5058172;28;20045;-79
2022/07/09 11:30:36;;;;;;;3.35;1.40;;;22.60;99.50;;;;;;5055981;28;20413;-79
2022/07/09 11:33:02;;;;;;;2.95;1.65;;;22.60;99.90;;;;;;5087186;28;20036;-79
2022/07/09 11:35:32;;;;;;;2.38;1.52;;;22.50;99.90;;;;;;5071399;28;20119;-79
2022/07/09 11:38:00;;;;;;;3.22;1.60;;;22.60;99.90;;;;;;5080988;28;20499;-78
2022/07/09 11:40:26;;;;;;;4.97;1.55;;;22.50;99.90;;;;;;5083398;28;20058;-81
2022/07/09 11:42:52;;;;;;;3.45;1.75;;;22.40;99.90;;;;;;5060321;28;20406;-78
2022/07/09 11:45:27;;;;;;;3.38;2.00;;;22.20;99.90;;;;;;5057207;28;20451;-79
2022/07/09 11:48:07;;;;;;;6.35;2.15;;;22.10;99.90;;;;;;5072891;28;20169;-76
2022/07/09 11:50:34;;;;;;;5.40;2.38;;;21.80;99.90;;;;;;5075515;28;20161;-78
2022/07/09 11:52:59;;;;;;;7.68;2.28;;;21.40;99.90;;;;;;5065153;28;20045;-79
2022/07/09 11:55:30;;;;;;;6.63;2.30;;;21.50;99.90;;;;;;5067147;28;20584;-78
2022/07/09 11:57:58;;;;;;;4.55;2.15;;;21.50;99.90;;;;;;5069603;28;20493;-79
2022/07/09 12:00:29;;;;;;;5.82;2.10;;;21.60;99.90;;;;;;5069698;28;20044;-79
2022/07/09 12:02:57;;;;;;;4.82;2.20;;;21.60;99.90;;;;;;5067077;28;20097;-79
2022/07/09 12:05:30;;;;;;;5.93;2.10;;;21.70;99.90;;;;;;5081679;28;20574;-79
2022/07/09 12:08:01;;;;;;;6.43;2.00;;;21.80;99.90;;;;;;5089440;28;20566;-77
2022/07/09 12:10:32;;;;;;;5.83;2.40;;;21.80;99.90;;;;;;5062013;28;20078;-80
2022/07/09 12:12:59;;;;;;;8.40;2.30;;;21.90;99.90;;;;;;5056763;28;20266;-80
2022/07/09 12:15:25;;;;;;;3.85;2.17;;;22.00;99.90;;;;;;5073232;28;20460;-79
2022/07/09 12:17:55;;;;;;;7.72;2.58;;;22.10;99.90;;;;;;5070005;28;20508;-80
2022/07/09 12:20:31;;;;;;;12.73;2.38;;;21.90;99.90;;;;;;5081189;28;20153;-79
2022/07/09 12:22:57;;;;;;;7.07;2.38;;;21.70;99.90;;;;;;5102525;28;20120;-77
2022/07/09 12:25:23;;;;;;;7.03;1.92;;;21.70;99.90;;;;;;5072759;28;20046;-79
2022/07/09 12:27:49;;;;;;;5.60;2.30;;;21.70;99.90;;;;;;5029992;28;20052;-79
2022/07/09 12:30:16;;;;;;;8.68;2.08;;;21.80;99.90;;;;;;5059921;28;20098;-80
2022/07/09 12:32:42;;;;;;;6.72;1.92;;;21.80;99.90;;;;;;5093963;28;20036;-80
2022/07/09 12:35:09;;;;;;;7.00;2.28;;;21.90;99.90;;;;;;5048394;28;20040;-78
2022/07/09 12:37:38;;;;;;;6.38;2.15;;;22.00;99.90;;;;;;5090931;28;20040;-78
2022/07/09 12:40:06;;;;;;;7.05;1.98;;;22.20;99.90;;;;;;5084866;28;20572;-76